createdAt,value
2022-11-22T00:01:42.602Z,0.13
2022-11-22T00:05:46.175Z,0.18
2022-11-22T00:09:49.535Z,0.24
2022-11-22T00:13:52.887Z,0.28
2022-11-22T00:17:56.331Z,0.27
2022-11-22T00:21:59.702Z,0.25
2022-11-22T00:26:03.050Z,0.21
2022-11-22T00:30:07.884Z,0.16
2022-11-22T00:34:11.245Z,0.14
2022-11-22T00:38:14.760Z,0.15
2022-11-22T00:42:18.110Z,0.21
2022-11-22T00:46:21.485Z,0.27
2022-11-22T00:50:24.850Z,0.28
2022-11-22T00:54:28.248Z,0.26
2022-11-22T00:58:31.562Z,0.24
2022-11-22T01:02:34.943Z,0.21
2022-11-22T01:06:38.287Z,0.18
2022-11-22T01:10:41.816Z,0.21
2022-11-22T01:14:45.218Z,0.27
2022-11-22T01:18:48.677Z,0.32
2022-11-22T01:22:52.097Z,0.36
2022-11-22T01:26:55.812Z,0.33
2022-11-22T01:30:59.240Z,0.29
2022-11-22T01:35:02.633Z,0.24
2022-11-22T01:39:06.098Z,0.21
2022-11-22T01:43:20.425Z,0.24
2022-11-22T01:47:25.738Z,0.27
2022-11-22T01:51:37.572Z,0.27
2022-11-22T01:55:41.895Z,0.24
2022-11-22T01:59:51.990Z,0.19
2022-11-22T02:03:57.787Z,0.14
2022-11-22T02:08:07.755Z,0.07
2022-11-22T02:12:12.757Z,0.03
2022-11-22T02:16:16.234Z,0.03
2022-11-22T02:20:19.674Z,0.05
2022-11-22T02:24:39.813Z,0.09
2022-11-22T02:28:43.769Z,0.12
2022-11-22T02:32:47.918Z,0.12
2022-11-22T02:36:54.314Z,0.10
2022-11-22T02:41:03.832Z,0.06
2022-11-22T02:45:07.772Z,0.03
2022-11-22T02:49:11.207Z,0.05
2022-11-22T02:53:14.768Z,0.08
2022-11-22T02:57:18.202Z,0.12
2022-11-22T03:01:21.632Z,0.17
2022-11-22T03:05:25.075Z,0.16
2022-11-22T03:09:28.894Z,0.17
2022-11-22T03:13:32.610Z,0.18
2022-11-22T03:17:36.132Z,0.22
2022-11-22T03:21:41.462Z,0.29
2022-11-22T03:25:44.928Z,0.36
2022-11-22T03:29:48.370Z,0.40
2022-11-22T03:33:51.918Z,0.40
2022-11-22T03:37:55.251Z,0.35
2022-11-22T03:41:58.684Z,0.29
2022-11-22T03:46:02.172Z,0.30
2022-11-22T03:50:06.100Z,0.35
2022-11-22T03:54:09.443Z,0.37
2022-11-22T03:58:12.842Z,0.37
2022-11-22T04:02:17.354Z,0.38
2022-11-22T04:06:21.218Z,0.38
2022-11-22T04:10:25.360Z,0.36
2022-11-22T04:14:47.288Z,0.36
2022-11-22T04:18:50.681Z,0.36
2022-11-22T04:23:05.157Z,0.39
2022-11-22T04:27:08.545Z,0.38
2022-11-22T04:31:30.596Z,0.33
2022-11-22T04:35:34.059Z,0.28
2022-11-22T04:39:37.444Z,0.21
2022-11-22T04:43:59.775Z,0.19
2022-11-22T04:48:04.228Z,0.19
2022-11-22T04:52:35.529Z,0.24
2022-11-22T04:56:38.953Z,0.28
2022-11-22T05:00:42.646Z,0.25
2022-11-22T05:04:50.385Z,0.22
2022-11-22T05:08:54.177Z,0.16
2022-11-22T05:12:57.626Z,0.14
2022-11-22T05:17:01.057Z,0.14
2022-11-22T05:21:08.971Z,0.17
2022-11-22T05:25:12.549Z,0.23
2022-11-22T05:29:15.901Z,0.28
2022-11-22T05:33:19.275Z,0.31
2022-11-22T05:37:22.864Z,0.29
2022-11-22T05:41:26.836Z,0.28
2022-11-22T05:45:30.325Z,0.32
2022-11-22T05:49:33.820Z,0.34
2022-11-22T05:53:38.506Z,0.36
2022-11-22T05:57:41.895Z,0.37
2022-11-22T06:01:45.352Z,0.33
2022-11-22T06:05:53.008Z,0.30
2022-11-22T06:09:57.795Z,0.34
2022-11-22T06:14:03.584Z,0.39
2022-11-22T06:18:06.936Z,0.44
2022-11-22T06:22:10.483Z,0.48
2022-11-22T06:26:16.526Z,0.48
2022-11-22T06:30:20.144Z,0.46
2022-11-22T06:34:23.810Z,0.48
2022-11-22T06:38:27.147Z,0.52
2022-11-22T06:42:30.560Z,0.54
2022-11-22T06:46:34.786Z,0.54
2022-11-22T06:50:38.087Z,0.52
2022-11-22T06:54:41.545Z,0.48
2022-11-22T06:58:45.895Z,0.49
2022-11-22T07:02:49.269Z,0.52
2022-11-22T07:06:52.602Z,0.56
2022-11-22T07:10:55.938Z,0.58
2022-11-22T07:14:59.275Z,0.58
2022-11-22T07:19:02.647Z,0.60
2022-11-22T07:23:10.683Z,0.58
2022-11-22T07:27:13.947Z,0.56
2022-11-22T07:31:18.861Z,0.56
2022-11-22T07:35:22.338Z,0.58
2022-11-22T07:39:25.800Z,0.61
2022-11-22T07:43:29.989Z,0.61
2022-11-22T07:47:33.431Z,0.57
2022-11-22T07:51:36.805Z,0.57
2022-11-22T07:55:40.150Z,0.59
2022-11-22T07:59:44.195Z,0.64
2022-11-22T08:03:48.000Z,0.66
2022-11-22T08:07:53.424Z,0.66
2022-11-22T08:11:57.364Z,0.65
2022-11-22T08:16:08.621Z,0.63
2022-11-22T08:20:12.150Z,0.67
2022-11-22T08:24:16.767Z,0.73
2022-11-22T08:28:20.100Z,0.82
2022-11-22T08:32:23.476Z,0.91
2022-11-22T08:36:30.159Z,0.92
2022-11-22T08:40:38.001Z,0.91
2022-11-22T08:44:44.146Z,0.89
2022-11-22T08:48:47.529Z,0.88
2022-11-22T08:52:50.858Z,0.92
2022-11-22T08:56:54.272Z,0.96
2022-11-22T09:00:57.943Z,1.00
2022-11-22T09:05:01.303Z,1.01
2022-11-22T09:13:29.917Z,0.98
2022-11-22T09:17:33.378Z,0.98
2022-11-22T09:21:36.722Z,1.03
2022-11-22T09:25:40.030Z,1.09
2022-11-22T09:29:43.505Z,1.15
2022-11-22T09:33:49.560Z,1.17
2022-11-22T09:37:52.926Z,1.18
2022-11-22T09:42:05.612Z,1.19
2022-11-22T09:46:52.015Z,1.22
2022-11-22T09:50:55.346Z,1.26
2022-11-22T09:55:07.084Z,1.30
2022-11-22T09:59:39.937Z,1.35
2022-11-22T10:03:58.007Z,1.37
2022-11-22T10:08:24.249Z,1.37
2022-11-22T10:12:59.802Z,1.35
2022-11-22T10:17:25.384Z,1.41
2022-11-22T10:21:28.708Z,1.49
2022-11-22T10:25:47.778Z,1.52
2022-11-22T10:30:20.370Z,1.53
2022-11-22T10:34:30.096Z,1.52
2022-11-22T10:39:03.569Z,1.52
2022-11-22T10:43:33.409Z,1.53
2022-11-22T10:47:47.060Z,1.57
2022-11-22T10:51:59.205Z,1.61
2022-11-22T10:56:12.552Z,1.63
2022-11-22T11:00:20.737Z,1.65
2022-11-22T11:04:28.319Z,1.66
2022-11-22T11:13:21.889Z,1.73
2022-11-22T11:17:32.208Z,1.77
2022-11-22T11:21:36.204Z,1.79
2022-11-22T11:25:42.677Z,1.80
2022-11-22T11:29:47.678Z,1.78
2022-11-22T11:33:51.180Z,1.78
2022-11-22T11:37:55.963Z,1.80
2022-11-22T11:41:59.737Z,1.82
2022-11-22T11:46:18.960Z,1.83
2022-11-22T11:50:28.904Z,1.83
2022-11-22T11:54:38.870Z,1.81
2022-11-22T11:58:42.250Z,1.80
2022-11-22T12:02:52.352Z,1.80
2022-11-22T12:07:03.674Z,1.85
2022-11-22T12:11:13.473Z,1.90
2022-11-22T12:15:44.217Z,1.91
2022-11-22T12:20:02.507Z,1.88
2022-11-22T12:25:16.972Z,1.83
2022-11-22T12:29:18.115Z,1.76
2022-11-22T12:33:29.469Z,1.75
2022-11-22T12:38:04.891Z,1.73
2022-11-22T12:42:20.071Z,1.75
2022-11-22T12:46:43.139Z,1.73
2022-11-22T12:50:53.999Z,1.69
2022-11-22T12:55:00.371Z,1.67
2022-11-22T12:59:12.814Z,1.69
2022-11-22T13:03:23.833Z,1.73
2022-11-22T13:07:43.325Z,1.76
2022-11-22T13:11:58.272Z,1.77
2022-11-22T13:16:07.188Z,1.75
2022-11-22T13:20:17.503Z,1.71
2022-11-22T13:24:46.270Z,1.63
2022-11-22T13:28:52.041Z,1.56
2022-11-22T13:33:01.085Z,1.52
2022-11-22T13:37:12.479Z,1.54
2022-11-22T13:41:30.504Z,1.54
2022-11-22T13:45:49.098Z,1.54
2022-11-22T13:49:54.315Z,1.55
2022-11-22T13:54:35.626Z,1.52
2022-11-22T13:58:39.394Z,1.45
2022-11-22T14:02:55.661Z,1.42
2022-11-22T14:07:22.212Z,1.44
2022-11-22T14:12:05.276Z,1.49
2022-11-22T14:16:33.901Z,1.51
2022-11-22T14:20:55.147Z,1.51
2022-11-22T14:25:17.442Z,1.47
2022-11-22T14:29:39.673Z,1.40
2022-11-22T14:34:14.996Z,1.37
2022-11-22T14:38:31.975Z,1.36
2022-11-22T14:42:40.214Z,1.37
2022-11-22T14:47:04.022Z,1.38
2022-11-22T14:51:15.260Z,1.36
2022-11-22T14:55:24.154Z,1.32
2022-11-22T15:00:12.247Z,1.29
2022-11-22T15:09:13.963Z,1.31
2022-11-22T15:09:15.571Z,1.31
2022-11-22T15:14:04.551Z,1.28
2022-11-22T15:59:22.980Z,1.04
2022-11-22T16:03:28.820Z,1.06
2022-11-22T16:07:41.036Z,1.07
2022-11-22T16:11:44.556Z,1.06
2022-11-22T16:16:13.098Z,1.02
2022-11-22T16:20:22.811Z,0.99
2022-11-22T16:24:31.583Z,0.99
2022-11-22T16:28:36.324Z,0.99
2022-11-22T16:32:39.837Z,1.00
2022-11-22T16:36:43.440Z,0.99
2022-11-22T16:40:48.287Z,0.98
2022-11-22T16:44:52.221Z,0.97
2022-11-22T16:48:56.993Z,0.96
2022-11-22T16:53:02.876Z,0.98
2022-11-22T16:57:11.974Z,1.00
2022-11-22T17:01:17.597Z,1.00
2022-11-22T17:05:21.210Z,0.96
2022-11-22T17:09:24.682Z,0.95
2022-11-22T17:13:28.319Z,0.96
2022-11-22T17:17:31.777Z,1.00
2022-11-22T17:21:38.033Z,0.99
2022-11-22T17:25:41.923Z,0.95
2022-11-22T17:29:52.643Z,0.94
2022-11-22T17:33:58.721Z,0.95
2022-11-22T17:38:02.256Z,0.98
2022-11-22T17:42:05.942Z,0.98
2022-11-22T17:46:09.469Z,0.96
2022-11-22T17:50:12.944Z,0.92
2022-11-22T17:54:16.514Z,0.88
2022-11-22T17:58:19.998Z,0.85
2022-11-22T18:02:23.457Z,0.83
2022-11-22T18:06:26.943Z,0.80
2022-11-22T18:10:30.580Z,0.80
2022-11-22T18:14:34.913Z,0.79
2022-11-22T18:18:56.198Z,0.76
2022-11-22T18:23:00.492Z,0.72
2022-11-22T18:27:04.107Z,0.74
2022-11-22T18:31:07.911Z,0.76
2022-11-22T18:35:11.552Z,0.80
2022-11-22T18:39:15.000Z,0.82
2022-11-22T18:43:18.463Z,0.82
2022-11-22T18:47:21.945Z,0.77
2022-11-22T18:51:25.469Z,0.75
2022-11-22T18:55:29.122Z,0.76
2022-11-22T18:59:32.736Z,0.74
2022-11-22T19:03:36.599Z,0.71
2022-11-22T19:07:40.060Z,0.67
2022-11-22T19:11:43.472Z,0.62
2022-11-22T19:15:47.060Z,0.60
2022-11-22T19:19:59.318Z,0.62
2022-11-22T19:24:03.766Z,0.67
2022-11-22T19:28:08.578Z,0.70
2022-11-22T19:32:12.576Z,0.70
2022-11-22T19:36:19.952Z,0.66
2022-11-22T19:40:25.689Z,0.64
2022-11-22T19:44:30.398Z,0.64
2022-11-22T19:48:36.407Z,0.65
2022-11-22T19:52:41.936Z,0.66
2022-11-22T19:56:46.185Z,0.65
2022-11-22T20:00:50.728Z,0.64
2022-11-22T20:04:54.357Z,0.62
2022-11-22T20:09:07.031Z,0.58
2022-11-22T20:13:10.795Z,0.60
2022-11-22T20:17:14.344Z,0.65
2022-11-22T20:21:22.035Z,0.72
2022-11-22T20:25:26.013Z,0.73
2022-11-22T20:29:29.388Z,0.72
2022-11-22T20:33:35.362Z,0.69
2022-11-22T20:37:38.882Z,0.69
2022-11-22T20:41:42.518Z,0.72
2022-11-22T20:45:46.253Z,0.76
2022-11-22T20:49:49.610Z,0.80
2022-11-22T20:53:53.606Z,0.80
2022-11-22T20:57:57.095Z,0.78
2022-11-22T21:02:00.894Z,0.79
2022-11-22T21:06:06.907Z,0.82
2022-11-22T21:10:10.442Z,0.84
2022-11-22T21:14:13.856Z,0.87
2022-11-22T21:18:26.643Z,0.85
2022-11-22T21:22:31.901Z,0.81
2022-11-22T21:26:35.685Z,0.81
2022-11-22T21:30:39.062Z,0.82
2022-11-22T21:34:42.574Z,0.84
2022-11-22T21:38:45.991Z,0.84
2022-11-22T21:42:49.345Z,0.82
2022-11-22T21:46:52.731Z,0.78
2022-11-22T21:50:57.118Z,0.76
2022-11-22T21:55:00.650Z,0.75
2022-11-22T21:59:04.113Z,0.74
2022-11-22T22:03:09.731Z,0.75
2022-11-22T22:07:23.888Z,0.76
2022-11-22T22:11:36.630Z,0.77
2022-11-22T22:15:40.193Z,0.74
2022-11-22T22:19:44.957Z,0.74
2022-11-22T22:23:48.449Z,0.75
2022-11-22T22:27:51.858Z,0.75
2022-11-22T22:31:55.214Z,0.75
2022-11-22T22:35:59.637Z,0.78
2022-11-22T22:40:03.415Z,0.78
2022-11-22T22:44:06.855Z,0.77
2022-11-22T22:48:10.250Z,0.72
2022-11-22T22:52:13.600Z,0.69
2022-11-22T22:56:20.194Z,0.69
2022-11-22T23:00:23.606Z,0.71
2022-11-22T23:04:26.983Z,0.73
2022-11-22T23:08:30.369Z,0.76
2022-11-22T23:12:33.739Z,0.76
2022-11-22T23:16:38.652Z,0.74
2022-11-22T23:20:42.046Z,0.72
2022-11-22T23:24:45.482Z,0.71
2022-11-22T23:28:49.183Z,0.72
2022-11-22T23:32:52.610Z,0.77
2022-11-22T23:36:56.003Z,0.79
2022-11-22T23:40:59.855Z,0.77
2022-11-22T23:45:03.419Z,0.72
2022-11-22T23:49:07.468Z,0.73
2022-11-22T23:53:10.996Z,0.77
2022-11-22T23:57:14.326Z,0.78
